sensor_id;sensor_type;location;lat;lon;timestamp;P1;durP1;ratioP1;P2;durP2;ratioP2
33926;SDS011;20485;50.992;5.550;2023-04-06T00:01:09;17.20;;;9.05;;
33926;SDS011;20485;50.992;5.550;2023-04-06T00:03:35;14.90;;;8.07;;
33926;SDS011;20485;50.992;5.550;2023-04-06T00:06:04;18.55;;;9.30;;
33926;SDS011;20485;50.992;5.550;2023-04-06T00:08:30;23.13;;;9.00;;
33926;SDS011;20485;50.992;5.550;2023-04-06T00:10:56;16.50;;;8.82;;
33926;SDS011;20485;50.992;5.550;2023-04-06T00:13:21;18.23;;;9.25;;
33926;SDS011;20485;50.992;5.550;2023-04-06T00:15:47;22.73;;;8.65;;
33926;SDS011;20485;50.992;5.550;2023-04-06T00:18:13;18.73;;;9.23;;
33926;SDS011;20485;50.992;5.550;2023-04-06T00:20:39;17.52;;;8.95;;
33926;SDS011;20485;50.992;5.550;2023-04-06T00:23:05;16.80;;;9.45;;
33926;SDS011;20485;50.992;5.550;2023-04-06T00:28:21;16.60;;;9.20;;
33926;SDS011;20485;50.992;5.550;2023-04-06T00:30:50;17.70;;;9.05;;
33926;SDS011;20485;50.992;5.550;2023-04-06T00:33:20;17.38;;;8.93;;
33926;SDS011;20485;50.992;5.550;2023-04-06T00:35:46;18.73;;;10.15;;
33926;SDS011;20485;50.992;5.550;2023-04-06T00:38:12;22.10;;;10.05;;
33926;SDS011;20485;50.992;5.550;2023-04-06T00:40:39;21.40;;;10.00;;
33926;SDS011;20485;50.992;5.550;2023-04-06T00:43:08;22.05;;;9.95;;
33926;SDS011;20485;50.992;5.550;2023-04-06T00:45:34;20.50;;;9.75;;
33926;SDS011;20485;50.992;5.550;2023-04-06T00:48:28;19.10;;;9.98;;
33926;SDS011;20485;50.992;5.550;2023-04-06T00:50:55;16.50;;;9.13;;
33926;SDS011;20485;50.992;5.550;2023-04-06T00:53:22;15.50;;;9.27;;
33926;SDS011;20485;50.992;5.550;2023-04-06T00:55:47;19.90;;;9.98;;
33926;SDS011;20485;50.992;5.550;2023-04-06T00:58:13;19.30;;;10.23;;
33926;SDS011;20485;50.992;5.550;2023-04-06T01:00:39;22.05;;;10.48;;
33926;SDS011;20485;50.992;5.550;2023-04-06T01:03:05;21.85;;;9.80;;
33926;SDS011;20485;50.992;5.550;2023-04-06T01:05:33;17.67;;;9.15;;
33926;SDS011;20485;50.992;5.550;2023-04-06T01:08:05;20.55;;;10.48;;
33926;SDS011;20485;50.992;5.550;2023-04-06T01:10:31;23.80;;;9.45;;
33926;SDS011;20485;50.992;5.550;2023-04-06T01:12:57;21.23;;;11.52;;
33926;SDS011;20485;50.992;5.550;2023-04-06T01:15:23;17.63;;;10.73;;
33926;SDS011;20485;50.992;5.550;2023-04-06T01:17:49;19.60;;;11.05;;
33926;SDS011;20485;50.992;5.550;2023-04-06T01:20:15;19.70;;;10.90;;
33926;SDS011;20485;50.992;5.550;2023-04-06T01:22:40;23.27;;;11.35;;
33926;SDS011;20485;50.992;5.550;2023-04-06T01:25:06;18.30;;;10.18;;
33926;SDS011;20485;50.992;5.550;2023-04-06T01:27:33;21.83;;;10.60;;
33926;SDS011;20485;50.992;5.550;2023-04-06T01:29:58;19.67;;;11.23;;
33926;SDS011;20485;50.992;5.550;2023-04-06T01:32:24;22.85;;;10.82;;
33926;SDS011;20485;50.992;5.550;2023-04-06T01:34:53;21.70;;;10.95;;
33926;SDS011;20485;50.992;5.550;2023-04-06T01:37:19;28.17;;;10.80;;
33926;SDS011;20485;50.992;5.550;2023-04-06T01:39:45;19.67;;;10.35;;
33926;SDS011;20485;50.992;5.550;2023-04-06T01:42:11;20.73;;;10.57;;
33926;SDS011;20485;50.992;5.550;2023-04-06T01:44:37;23.40;;;10.90;;
33926;SDS011;20485;50.992;5.550;2023-04-06T01:47:02;26.80;;;11.68;;
33926;SDS011;20485;50.992;5.550;2023-04-06T01:49:28;23.00;;;10.75;;
33926;SDS011;20485;50.992;5.550;2023-04-06T01:51:54;23.92;;;11.65;;
33926;SDS011;20485;50.992;5.550;2023-04-06T01:54:20;25.67;;;11.38;;
33926;SDS011;20485;50.992;5.550;2023-04-06T01:56:46;26.30;;;11.90;;
33926;SDS011;20485;50.992;5.550;2023-04-06T01:59:12;24.63;;;11.50;;
33926;SDS011;20485;50.992;5.550;2023-04-06T02:01:38;24.70;;;10.88;;
33926;SDS011;20485;50.992;5.550;2023-04-06T02:04:03;20.33;;;11.30;;
33926;SDS011;20485;50.992;5.550;2023-04-06T02:06:29;26.52;;;10.73;;
33926;SDS011;20485;50.992;5.550;2023-04-06T02:08:55;24.83;;;12.63;;
33926;SDS011;20485;50.992;5.550;2023-04-06T02:11:21;25.48;;;12.90;;
33926;SDS011;20485;50.992;5.550;2023-04-06T02:13:47;25.90;;;12.07;;
33926;SDS011;20485;50.992;5.550;2023-04-06T02:16:12;28.15;;;11.68;;
33926;SDS011;20485;50.992;5.550;2023-04-06T02:18:38;22.05;;;11.30;;
33926;SDS011;20485;50.992;5.550;2023-04-06T02:21:04;20.17;;;9.98;;
33926;SDS011;20485;50.992;5.550;2023-04-06T02:23:30;25.35;;;11.23;;
33926;SDS011;20485;50.992;5.550;2023-04-06T02:25:56;24.63;;;12.20;;
33926;SDS011;20485;50.992;5.550;2023-04-06T02:28:29;25.33;;;11.73;;
33926;SDS011;20485;50.992;5.550;2023-04-06T02:30:54;27.10;;;11.27;;
33926;SDS011;20485;50.992;5.550;2023-04-06T02:33:20;25.55;;;11.52;;
33926;SDS011;20485;50.992;5.550;2023-04-06T02:35:46;27.20;;;11.63;;
33926;SDS011;20485;50.992;5.550;2023-04-06T02:38:12;27.55;;;12.27;;
33926;SDS011;20485;50.992;5.550;2023-04-06T02:40:37;26.23;;;12.13;;
33926;SDS011;20485;50.992;5.550;2023-04-06T02:43:03;26.77;;;12.18;;
33926;SDS011;20485;50.992;5.550;2023-04-06T02:45:29;25.02;;;12.35;;
33926;SDS011;20485;50.992;5.550;2023-04-06T02:47:55;25.50;;;12.35;;
33926;SDS011;20485;50.992;5.550;2023-04-06T02:50:33;27.08;;;13.07;;
33926;SDS011;20485;50.992;5.550;2023-04-06T02:52:58;28.40;;;13.13;;
33926;SDS011;20485;50.992;5.550;2023-04-06T02:55:24;30.45;;;13.07;;
33926;SDS011;20485;50.992;5.550;2023-04-06T02:57:56;30.08;;;12.90;;
33926;SDS011;20485;50.992;5.550;2023-04-06T03:00:22;24.83;;;12.52;;
33926;SDS011;20485;50.992;5.550;2023-04-06T03:02:48;26.75;;;12.50;;
33926;SDS011;20485;50.992;5.550;2023-04-06T03:05:13;28.77;;;13.75;;
33926;SDS011;20485;50.992;5.550;2023-04-06T03:07:39;26.05;;;12.90;;
33926;SDS011;20485;50.992;5.550;2023-04-06T03:10:05;32.92;;;13.00;;
33926;SDS011;20485;50.992;5.550;2023-04-06T03:12:31;26.38;;;13.18;;
33926;SDS011;20485;50.992;5.550;2023-04-06T03:14:56;25.67;;;12.60;;
33926;SDS011;20485;50.992;5.550;2023-04-06T03:17:22;28.38;;;13.15;;
33926;SDS011;20485;50.992;5.550;2023-04-06T03:19:48;27.30;;;13.10;;
33926;SDS011;20485;50.992;5.550;2023-04-06T03:22:13;29.95;;;15.10;;
33926;SDS011;20485;50.992;5.550;2023-04-06T03:24:39;25.30;;;12.30;;
33926;SDS011;20485;50.992;5.550;2023-04-06T03:27:05;33.85;;;13.70;;
33926;SDS011;20485;50.992;5.550;2023-04-06T03:29:33;25.48;;;12.95;;
33926;SDS011;20485;50.992;5.550;2023-04-06T03:31:59;24.20;;;11.73;;
33926;SDS011;20485;50.992;5.550;2023-04-06T03:34:25;26.70;;;12.90;;
33926;SDS011;20485;50.992;5.550;2023-04-06T03:36:50;27.92;;;13.07;;
33926;SDS011;20485;50.992;5.550;2023-04-06T03:39:16;26.58;;;12.63;;
33926;SDS011;20485;50.992;5.550;2023-04-06T03:41:42;24.52;;;12.88;;
33926;SDS011;20485;50.992;5.550;2023-04-06T03:44:09;23.38;;;12.50;;
33926;SDS011;20485;50.992;5.550;2023-04-06T03:46:37;29.95;;;13.52;;
33926;SDS011;20485;50.992;5.550;2023-04-06T03:49:03;25.55;;;13.18;;
33926;SDS011;20485;50.992;5.550;2023-04-06T03:51:29;26.20;;;13.50;;
33926;SDS011;20485;50.992;5.550;2023-04-06T03:53:54;29.75;;;12.10;;
33926;SDS011;20485;50.992;5.550;2023-04-06T03:56:20;21.58;;;11.60;;
33926;SDS011;20485;50.992;5.550;2023-04-06T03:58:46;23.02;;;11.35;;
33926;SDS011;20485;50.992;5.550;2023-04-06T04:01:15;25.27;;;12.90;;
33926;SDS011;20485;50.992;5.550;2023-04-06T04:03:42;28.88;;;12.80;;
33926;SDS011;20485;50.992;5.550;2023-04-06T04:06:08;28.70;;;13.05;;
33926;SDS011;20485;50.992;5.550;2023-04-06T04:08:33;22.48;;;11.63;;
33926;SDS011;20485;50.992;5.550;2023-04-06T04:11:00;29.98;;;12.07;;
33926;SDS011;20485;50.992;5.550;2023-04-06T04:13:26;28.17;;;13.18;;
33926;SDS011;20485;50.992;5.550;2023-04-06T04:15:52;24.60;;;12.80;;
33926;SDS011;20485;50.992;5.550;2023-04-06T04:18:18;27.83;;;12.23;;
33926;SDS011;20485;50.992;5.550;2023-04-06T04:20:44;25.40;;;12.68;;
33926;SDS011;20485;50.992;5.550;2023-04-06T04:23:09;27.58;;;12.30;;
33926;SDS011;20485;50.992;5.550;2023-04-06T04:25:35;22.58;;;12.68;;
33926;SDS011;20485;50.992;5.550;2023-04-06T04:28:01;24.02;;;12.18;;
33926;SDS011;20485;50.992;5.550;2023-04-06T04:30:27;28.23;;;13.27;;
33926;SDS011;20485;50.992;5.550;2023-04-06T04:32:53;30.27;;;13.77;;
33926;SDS011;20485;50.992;5.550;2023-04-06T04:35:19;28.60;;;13.88;;
33926;SDS011;20485;50.992;5.550;2023-04-06T04:37:45;35.28;;;13.82;;
33926;SDS011;20485;50.992;5.550;2023-04-06T04:40:11;22.90;;;12.65;;
33926;SDS011;20485;50.992;5.550;2023-04-06T04:42:37;26.85;;;13.18;;
33926;SDS011;20485;50.992;5.550;2023-04-06T04:45:02;32.90;;;14.20;;
33926;SDS011;20485;50.992;5.550;2023-04-06T04:47:28;28.67;;;12.88;;
33926;SDS011;20485;50.992;5.550;2023-04-06T04:49:54;24.83;;;13.55;;
33926;SDS011;20485;50.992;5.550;2023-04-06T04:52:20;31.67;;;13.20;;
33926;SDS011;20485;50.992;5.550;2023-04-06T04:54:45;31.10;;;13.98;;
33926;SDS011;20485;50.992;5.550;2023-04-06T04:57:12;25.38;;;13.32;;
33926;SDS011;20485;50.992;5.550;2023-04-06T04:59:37;24.50;;;13.55;;
33926;SDS011;20485;50.992;5.550;2023-04-06T05:02:03;24.10;;;11.95;;
33926;SDS011;20485;50.992;5.550;2023-04-06T05:04:29;30.27;;;13.85;;
33926;SDS011;20485;50.992;5.550;2023-04-06T05:07:07;24.73;;;13.27;;
33926;SDS011;20485;50.992;5.550;2023-04-06T05:09:34;25.40;;;12.35;;
33926;SDS011;20485;50.992;5.550;2023-04-06T05:12:00;22.35;;;12.90;;
33926;SDS011;20485;50.992;5.550;2023-04-06T05:14:26;29.90;;;14.30;;
33926;SDS011;20485;50.992;5.550;2023-04-06T05:16:53;29.25;;;13.20;;
33926;SDS011;20485;50.992;5.550;2023-04-06T05:19:19;19.92;;;11.68;;
33926;SDS011;20485;50.992;5.550;2023-04-06T05:21:45;24.50;;;11.55;;
33926;SDS011;20485;50.992;5.550;2023-04-06T05:24:11;21.17;;;11.13;;
33926;SDS011;20485;50.992;5.550;2023-04-06T05:26:37;29.80;;;12.43;;
33926;SDS011;20485;50.992;5.550;2023-04-06T05:29:03;21.58;;;11.32;;
33926;SDS011;20485;50.992;5.550;2023-04-06T05:31:29;24.77;;;11.57;;
33926;SDS011;20485;50.992;5.550;2023-04-06T05:33:56;26.33;;;12.52;;
33926;SDS011;20485;50.992;5.550;2023-04-06T05:36:22;25.13;;;12.45;;
33926;SDS011;20485;50.992;5.550;2023-04-06T05:38:47;25.05;;;11.40;;
33926;SDS011;20485;50.992;5.550;2023-04-06T05:41:15;28.77;;;12.15;;
33926;SDS011;20485;50.992;5.550;2023-04-06T05:43:40;25.55;;;11.98;;
33926;SDS011;20485;50.992;5.550;2023-04-06T05:46:07;28.20;;;12.73;;
33926;SDS011;20485;50.992;5.550;2023-04-06T05:48:32;27.17;;;12.13;;
33926;SDS011;20485;50.992;5.550;2023-04-06T05:50:58;22.63;;;11.80;;
33926;SDS011;20485;50.992;5.550;2023-04-06T05:53:24;26.38;;;12.60;;
33926;SDS011;20485;50.992;5.550;2023-04-06T05:55:54;28.58;;;12.55;;
33926;SDS011;20485;50.992;5.550;2023-04-06T05:58:19;24.00;;;11.45;;
33926;SDS011;20485;50.992;5.550;2023-04-06T06:00:45;26.75;;;12.25;;
33926;SDS011;20485;50.992;5.550;2023-04-06T06:03:11;28.55;;;12.38;;
33926;SDS011;20485;50.992;5.550;2023-04-06T06:05:37;23.58;;;12.25;;
33926;SDS011;20485;50.992;5.550;2023-04-06T06:08:03;25.63;;;13.25;;
33926;SDS011;20485;50.992;5.550;2023-04-06T06:10:28;31.77;;;15.68;;
33926;SDS011;20485;50.992;5.550;2023-04-06T06:12:54;31.05;;;15.07;;
33926;SDS011;20485;50.992;5.550;2023-04-06T06:15:20;29.15;;;15.32;;
33926;SDS011;20485;50.992;5.550;2023-04-06T06:17:46;32.42;;;14.88;;
33926;SDS011;20485;50.992;5.550;2023-04-06T06:20:11;31.88;;;14.55;;
33926;SDS011;20485;50.992;5.550;2023-04-06T06:22:37;25.45;;;13.75;;
33926;SDS011;20485;50.992;5.550;2023-04-06T06:25:05;33.78;;;13.02;;
33926;SDS011;20485;50.992;5.550;2023-04-06T06:27:30;26.17;;;13.40;;
33926;SDS011;20485;50.992;5.550;2023-04-06T06:29:56;26.65;;;13.20;;
33926;SDS011;20485;50.992;5.550;2023-04-06T06:32:22;32.83;;;13.27;;
33926;SDS011;20485;50.992;5.550;2023-04-06T06:34:47;23.45;;;12.32;;
33926;SDS011;20485;50.992;5.550;2023-04-06T06:37:13;28.58;;;13.52;;
33926;SDS011;20485;50.992;5.550;2023-04-06T06:39:39;24.42;;;12.38;;
33926;SDS011;20485;50.992;5.550;2023-04-06T06:42:05;27.25;;;12.00;;
33926;SDS011;20485;50.992;5.550;2023-04-06T06:44:30;21.25;;;12.73;;
33926;SDS011;20485;50.992;5.550;2023-04-06T06:46:56;23.33;;;11.85;;
33926;SDS011;20485;50.992;5.550;2023-04-06T06:49:21;26.48;;;12.05;;
33926;SDS011;20485;50.992;5.550;2023-04-06T06:51:47;21.23;;;12.15;;
33926;SDS011;20485;50.992;5.550;2023-04-06T06:54:13;25.63;;;11.77;;
33926;SDS011;20485;50.992;5.550;2023-04-06T06:56:38;24.08;;;12.23;;
33926;SDS011;20485;50.992;5.550;2023-04-06T06:59:04;24.42;;;12.38;;
33926;SDS011;20485;50.992;5.550;2023-04-06T07:01:34;24.05;;;13.05;;
33926;SDS011;20485;50.992;5.550;2023-04-06T07:03:59;24.17;;;12.32;;
33926;SDS011;20485;50.992;5.550;2023-04-06T07:06:25;27.50;;;11.70;;
33926;SDS011;20485;50.992;5.550;2023-04-06T07:08:51;23.13;;;12.52;;
33926;SDS011;20485;50.992;5.550;2023-04-06T07:11:16;22.45;;;12.48;;
33926;SDS011;20485;50.992;5.550;2023-04-06T07:13:42;23.88;;;11.35;;
33926;SDS011;20485;50.992;5.550;2023-04-06T07:16:08;24.45;;;10.93;;
33926;SDS011;20485;50.992;5.550;2023-04-06T07:18:34;27.48;;;12.55;;
33926;SDS011;20485;50.992;5.550;2023-04-06T07:20:59;26.85;;;11.00;;
33926;SDS011;20485;50.992;5.550;2023-04-06T07:23:25;24.75;;;12.30;;
33926;SDS011;20485;50.992;5.550;2023-04-06T07:25:51;24.30;;;11.73;;
33926;SDS011;20485;50.992;5.550;2023-04-06T07:28:18;19.73;;;12.07;;
33926;SDS011;20485;50.992;5.550;2023-04-06T07:30:44;24.95;;;11.48;;
33926;SDS011;20485;50.992;5.550;2023-04-06T07:33:10;23.33;;;11.30;;
33926;SDS011;20485;50.992;5.550;2023-04-06T07:35:36;23.70;;;11.15;;
33926;SDS011;20485;50.992;5.550;2023-04-06T07:38:02;26.77;;;12.13;;
33926;SDS011;20485;50.992;5.550;2023-04-06T07:40:28;20.88;;;10.32;;
33926;SDS011;20485;50.992;5.550;2023-04-06T07:42:56;20.40;;;10.75;;
33926;SDS011;20485;50.992;5.550;2023-04-06T07:45:22;26.05;;;10.75;;
33926;SDS011;20485;50.992;5.550;2023-04-06T07:47:48;26.73;;;11.63;;
33926;SDS011;20485;50.992;5.550;2023-04-06T07:50:14;22.35;;;10.40;;
33926;SDS011;20485;50.992;5.550;2023-04-06T07:52:40;20.83;;;10.70;;
33926;SDS011;20485;50.992;5.550;2023-04-06T07:55:06;24.95;;;12.10;;
33926;SDS011;20485;50.992;5.550;2023-04-06T07:57:32;28.85;;;11.13;;
33926;SDS011;20485;50.992;5.550;2023-04-06T07:59:58;25.90;;;11.88;;
33926;SDS011;20485;50.992;5.550;2023-04-06T08:02:24;22.00;;;10.48;;
33926;SDS011;20485;50.992;5.550;2023-04-06T08:04:49;27.48;;;10.82;;
33926;SDS011;20485;50.992;5.550;2023-04-06T08:07:15;26.35;;;11.52;;
33926;SDS011;20485;50.992;5.550;2023-04-06T08:09:41;25.35;;;10.52;;
33926;SDS011;20485;50.992;5.550;2023-04-06T08:12:06;23.02;;;11.10;;
33926;SDS011;20485;50.992;5.550;2023-04-06T08:14:32;22.75;;;10.38;;
33926;SDS011;20485;50.992;5.550;2023-04-06T08:16:58;22.88;;;10.65;;
33926;SDS011;20485;50.992;5.550;2023-04-06T08:19:23;24.75;;;10.43;;
33926;SDS011;20485;50.992;5.550;2023-04-06T08:21:49;25.33;;;10.50;;
33926;SDS011;20485;50.992;5.550;2023-04-06T08:24:16;25.55;;;11.63;;
33926;SDS011;20485;50.992;5.550;2023-04-06T08:26:41;27.60;;;11.73;;
33926;SDS011;20485;50.992;5.550;2023-04-06T08:29:07;22.20;;;10.93;;
33926;SDS011;20485;50.992;5.550;2023-04-06T08:31:33;20.58;;;10.65;;
33926;SDS011;20485;50.992;5.550;2023-04-06T08:34:00;22.08;;;9.90;;
33926;SDS011;20485;50.992;5.550;2023-04-06T08:36:26;22.38;;;10.93;;
33926;SDS011;20485;50.992;5.550;2023-04-06T08:38:52;25.85;;;11.85;;
33926;SDS011;20485;50.992;5.550;2023-04-06T08:41:18;26.50;;;11.18;;
33926;SDS011;20485;50.992;5.550;2023-04-06T08:43:49;26.20;;;11.73;;
33926;SDS011;20485;50.992;5.550;2023-04-06T08:46:21;26.63;;;12.00;;
33926;SDS011;20485;50.992;5.550;2023-04-06T08:48:48;33.15;;;12.18;;
33926;SDS011;20485;50.992;5.550;2023-04-06T08:51:15;27.02;;;11.68;;
33926;SDS011;20485;50.992;5.550;2023-04-06T08:53:41;28.30;;;11.77;;
33926;SDS011;20485;50.992;5.550;2023-04-06T08:56:06;24.23;;;12.23;;
33926;SDS011;20485;50.992;5.550;2023-04-06T08:58:35;31.02;;;12.95;;
33926;SDS011;20485;50.992;5.550;2023-04-06T09:01:03;24.83;;;11.48;;
33926;SDS011;20485;50.992;5.550;2023-04-06T09:03:33;23.63;;;10.50;;
33926;SDS011;20485;50.992;5.550;2023-04-06T09:06:03;25.90;;;13.73;;
33926;SDS011;20485;50.992;5.550;2023-04-06T09:08:33;23.65;;;10.90;;
33926;SDS011;20485;50.992;5.550;2023-04-06T09:11:00;25.70;;;12.02;;
33926;SDS011;20485;50.992;5.550;2023-04-06T09:13:27;29.05;;;11.98;;
33926;SDS011;20485;50.992;5.550;2023-04-06T09:16:02;23.60;;;11.32;;
33926;SDS011;20485;50.992;5.550;2023-04-06T09:18:32;26.77;;;10.52;;
33926;SDS011;20485;50.992;5.550;2023-04-06T09:21:05;29.40;;;11.82;;
33926;SDS011;20485;50.992;5.550;2023-04-06T09:23:31;22.88;;;11.10;;
33926;SDS011;20485;50.992;5.550;2023-04-06T09:26:07;25.55;;;10.70;;
33926;SDS011;20485;50.992;5.550;2023-04-06T09:28:42;18.77;;;10.18;;
33926;SDS011;20485;50.992;5.550;2023-04-06T09:31:09;23.10;;;10.02;;
33926;SDS011;20485;50.992;5.550;2023-04-06T09:33:43;20.33;;;9.93;;
33926;SDS011;20485;50.992;5.550;2023-04-06T09:36:10;17.30;;;9.15;;
33926;SDS011;20485;50.992;5.550;2023-04-06T09:38:37;26.23;;;10.35;;
33926;SDS011;20485;50.992;5.550;2023-04-06T09:41:04;17.58;;;9.55;;
33926;SDS011;20485;50.992;5.550;2023-04-06T09:43:30;19.40;;;9.90;;
33926;SDS011;20485;50.992;5.550;2023-04-06T09:45:56;20.88;;;10.07;;
33926;SDS011;20485;50.992;5.550;2023-04-06T09:48:24;19.63;;;8.73;;
33926;SDS011;20485;50.992;5.550;2023-04-06T09:50:51;19.58;;;9.45;;
33926;SDS011;20485;50.992;5.550;2023-04-06T09:53:20;16.98;;;9.07;;
33926;SDS011;20485;50.992;5.550;2023-04-06T09:55:50;15.95;;;8.65;;
33926;SDS011;20485;50.992;5.550;2023-04-06T09:58:22;19.83;;;7.57;;
33926;SDS011;20485;50.992;5.550;2023-04-06T10:06:13;14.93;;;7.82;;
33926;SDS011;20485;50.992;5.550;2023-04-06T10:08:40;14.57;;;8.30;;
33926;SDS011;20485;50.992;5.550;2023-04-06T10:11:08;17.52;;;7.57;;
33926;SDS011;20485;50.992;5.550;2023-04-06T10:13:36;12.85;;;7.68;;
33926;SDS011;20485;50.992;5.550;2023-04-06T10:16:02;15.25;;;7.80;;
33926;SDS011;20485;50.992;5.550;2023-04-06T10:18:29;13.73;;;8.10;;
33926;SDS011;20485;50.992;5.550;2023-04-06T10:21:03;17.50;;;8.02;;
33926;SDS011;20485;50.992;5.550;2023-04-06T10:26:22;14.55;;;6.82;;
33926;SDS011;20485;50.992;5.550;2023-04-06T10:28:48;25.73;;;8.02;;
33926;SDS011;20485;50.992;5.550;2023-04-06T10:31:15;13.50;;;6.50;;
33926;SDS011;20485;50.992;5.550;2023-04-06T10:34:02;16.65;;;6.15;;
33926;SDS011;20485;50.992;5.550;2023-04-06T10:36:32;12.38;;;6.47;;
33926;SDS011;20485;50.992;5.550;2023-04-06T10:38:59;11.27;;;6.57;;
33926;SDS011;20485;50.992;5.550;2023-04-06T10:41:42;15.20;;;7.07;;
33926;SDS011;20485;50.992;5.550;2023-04-06T10:44:23;13.18;;;6.88;;
33926;SDS011;20485;50.992;5.550;2023-04-06T10:46:56;14.60;;;7.60;;
33926;SDS011;20485;50.992;5.550;2023-04-06T10:49:25;12.00;;;7.40;;
33926;SDS011;20485;50.992;5.550;2023-04-06T10:51:52;15.40;;;8.77;;
33926;SDS011;20485;50.992;5.550;2023-04-06T10:54:23;14.68;;;8.45;;
33926;SDS011;20485;50.992;5.550;2023-04-06T10:56:50;20.13;;;9.25;;
33926;SDS011;20485;50.992;5.550;2023-04-06T10:59:19;17.67;;;8.45;;
33926;SDS011;20485;50.992;5.550;2023-04-06T11:01:46;16.67;;;8.43;;
33926;SDS011;20485;50.992;5.550;2023-04-06T11:04:15;19.35;;;9.07;;
33926;SDS011;20485;50.992;5.550;2023-04-06T11:06:48;18.60;;;9.85;;
33926;SDS011;20485;50.992;5.550;2023-04-06T11:09:27;16.00;;;8.95;;
33926;SDS011;20485;50.992;5.550;2023-04-06T11:11:54;16.45;;;10.07;;
33926;SDS011;20485;50.992;5.550;2023-04-06T11:14:21;18.05;;;8.82;;
33926;SDS011;20485;50.992;5.550;2023-04-06T11:16:47;17.30;;;9.60;;
33926;SDS011;20485;50.992;5.550;2023-04-06T11:19:16;16.98;;;10.15;;
33926;SDS011;20485;50.992;5.550;2023-04-06T11:21:43;19.48;;;9.90;;
33926;SDS011;20485;50.992;5.550;2023-04-06T11:24:24;20.17;;;10.10;;
33926;SDS011;20485;50.992;5.550;2023-04-06T11:29:23;18.25;;;9.45;;
33926;SDS011;20485;50.992;5.550;2023-04-06T11:31:52;20.45;;;9.45;;
33926;SDS011;20485;50.992;5.550;2023-04-06T11:36:59;16.58;;;9.40;;
33926;SDS011;20485;50.992;5.550;2023-04-06T11:39:27;14.10;;;8.30;;
33926;SDS011;20485;50.992;5.550;2023-04-06T11:41:56;15.52;;;8.35;;
33926;SDS011;20485;50.992;5.550;2023-04-06T11:44:40;16.15;;;8.88;;
33926;SDS011;20485;50.992;5.550;2023-04-06T11:47:11;14.98;;;8.63;;
33926;SDS011;20485;50.992;5.550;2023-04-06T11:49:38;14.55;;;8.50;;
33926;SDS011;20485;50.992;5.550;2023-04-06T11:52:14;15.45;;;8.88;;
33926;SDS011;20485;50.992;5.550;2023-04-06T11:54:41;17.67;;;9.00;;
33926;SDS011;20485;50.992;5.550;2023-04-06T11:57:07;16.08;;;8.88;;
33926;SDS011;20485;50.992;5.550;2023-04-06T11:59:34;16.20;;;9.43;;
33926;SDS011;20485;50.992;5.550;2023-04-06T12:02:01;17.98;;;9.25;;
33926;SDS011;20485;50.992;5.550;2023-04-06T12:04:27;19.83;;;9.45;;
33926;SDS011;20485;50.992;5.550;2023-04-06T12:06:54;18.60;;;9.63;;
33926;SDS011;20485;50.992;5.550;2023-04-06T12:09:20;29.70;;;10.55;;
33926;SDS011;20485;50.992;5.550;2023-04-06T12:11:45;21.73;;;10.48;;
33926;SDS011;20485;50.992;5.550;2023-04-06T12:14:12;22.42;;;9.93;;
33926;SDS011;20485;50.992;5.550;2023-04-06T12:16:38;21.25;;;10.23;;
33926;SDS011;20485;50.992;5.550;2023-04-06T12:19:05;18.67;;;9.73;;
33926;SDS011;20485;50.992;5.550;2023-04-06T12:21:31;18.60;;;8.95;;
33926;SDS011;20485;50.992;5.550;2023-04-06T12:23:58;19.15;;;9.73;;
33926;SDS011;20485;50.992;5.550;2023-04-06T12:26:25;22.02;;;11.10;;
33926;SDS011;20485;50.992;5.550;2023-04-06T12:28:51;19.55;;;10.38;;
33926;SDS011;20485;50.992;5.550;2023-04-06T12:31:17;18.67;;;10.50;;
33926;SDS011;20485;50.992;5.550;2023-04-06T12:33:48;21.08;;;10.75;;
33926;SDS011;20485;50.992;5.550;2023-04-06T12:36:15;19.60;;;10.45;;
33926;SDS011;20485;50.992;5.550;2023-04-06T12:38:49;20.13;;;10.38;;
33926;SDS011;20485;50.992;5.550;2023-04-06T12:41:18;21.05;;;9.10;;
33926;SDS011;20485;50.992;5.550;2023-04-06T12:43:45;18.88;;;8.88;;
33926;SDS011;20485;50.992;5.550;2023-04-06T12:46:11;17.67;;;9.30;;
33926;SDS011;20485;50.992;5.550;2023-04-06T12:48:37;17.42;;;8.70;;
33926;SDS011;20485;50.992;5.550;2023-04-06T12:51:06;16.65;;;8.02;;
33926;SDS011;20485;50.992;5.550;2023-04-06T12:53:33;13.65;;;8.70;;
33926;SDS011;20485;50.992;5.550;2023-04-06T12:55:59;14.15;;;8.35;;
33926;SDS011;20485;50.992;5.550;2023-04-06T12:58:26;19.17;;;8.65;;
33926;SDS011;20485;50.992;5.550;2023-04-06T13:00:52;14.40;;;8.10;;
33926;SDS011;20485;50.992;5.550;2023-04-06T13:03:19;16.20;;;8.57;;
33926;SDS011;20485;50.992;5.550;2023-04-06T13:05:49;16.80;;;9.30;;
33926;SDS011;20485;50.992;5.550;2023-04-06T13:08:16;19.20;;;8.55;;
33926;SDS011;20485;50.992;5.550;2023-04-06T13:10:52;18.77;;;9.05;;
33926;SDS011;20485;50.992;5.550;2023-04-06T13:13:22;15.27;;;8.98;;
33926;SDS011;20485;50.992;5.550;2023-04-06T13:15:49;14.23;;;8.65;;
33926;SDS011;20485;50.992;5.550;2023-04-06T13:18:15;18.42;;;8.10;;
33926;SDS011;20485;50.992;5.550;2023-04-06T13:20:41;18.75;;;9.05;;
33926;SDS011;20485;50.992;5.550;2023-04-06T13:23:08;16.17;;;8.18;;
33926;SDS011;20485;50.992;5.550;2023-04-06T13:25:33;18.08;;;9.30;;
33926;SDS011;20485;50.992;5.550;2023-04-06T13:27:59;22.33;;;9.93;;
33926;SDS011;20485;50.992;5.550;2023-04-06T13:30:25;16.20;;;8.35;;
33926;SDS011;20485;50.992;5.550;2023-04-06T13:32:51;15.57;;;8.13;;
33926;SDS011;20485;50.992;5.550;2023-04-06T13:35:17;12.48;;;7.95;;
33926;SDS011;20485;50.992;5.550;2023-04-06T13:37:43;12.90;;;7.35;;
33926;SDS011;20485;50.992;5.550;2023-04-06T13:40:09;11.90;;;7.25;;
33926;SDS011;20485;50.992;5.550;2023-04-06T13:42:36;13.88;;;7.85;;
33926;SDS011;20485;50.992;5.550;2023-04-06T13:45:05;13.15;;;7.10;;
33926;SDS011;20485;50.992;5.550;2023-04-06T13:47:31;14.20;;;7.78;;
33926;SDS011;20485;50.992;5.550;2023-04-06T13:49:57;15.02;;;8.18;;
33926;SDS011;20485;50.992;5.550;2023-04-06T13:52:23;14.40;;;7.30;;
33926;SDS011;20485;50.992;5.550;2023-04-06T13:54:49;11.57;;;7.28;;
33926;SDS011;20485;50.992;5.550;2023-04-06T13:57:15;11.90;;;7.45;;
33926;SDS011;20485;50.992;5.550;2023-04-06T13:59:41;11.68;;;7.25;;
33926;SDS011;20485;50.992;5.550;2023-04-06T14:02:08;14.55;;;7.47;;
33926;SDS011;20485;50.992;5.550;2023-04-06T14:04:35;11.73;;;7.43;;
33926;SDS011;20485;50.992;5.550;2023-04-06T14:07:01;11.02;;;7.20;;
33926;SDS011;20485;50.992;5.550;2023-04-06T14:09:28;11.00;;;7.10;;
33926;SDS011;20485;50.992;5.550;2023-04-06T14:11:54;13.05;;;7.05;;
33926;SDS011;20485;50.992;5.550;2023-04-06T14:14:21;11.02;;;6.55;;
33926;SDS011;20485;50.992;5.550;2023-04-06T14:16:48;11.65;;;6.78;;
33926;SDS011;20485;50.992;5.550;2023-04-06T14:19:14;11.43;;;7.28;;
33926;SDS011;20485;50.992;5.550;2023-04-06T14:21:42;10.60;;;6.45;;
33926;SDS011;20485;50.992;5.550;2023-04-06T14:24:09;15.00;;;7.28;;
33926;SDS011;20485;50.992;5.550;2023-04-06T14:26:36;11.13;;;6.32;;
33926;SDS011;20485;50.992;5.550;2023-04-06T14:29:02;11.77;;;6.68;;
33926;SDS011;20485;50.992;5.550;2023-04-06T14:31:29;9.48;;;6.40;;
33926;SDS011;20485;50.992;5.550;2023-04-06T14:33:55;13.30;;;7.25;;
33926;SDS011;20485;50.992;5.550;2023-04-06T14:36:21;17.10;;;7.53;;
33926;SDS011;20485;50.992;5.550;2023-04-06T14:38:48;12.77;;;7.00;;
33926;SDS011;20485;50.992;5.550;2023-04-06T14:41:17;13.57;;;6.43;;